createdAt,value
2017-08-28T00:01:02.541Z,94.02
2017-08-28T00:02:09.315Z,93.98
2017-08-28T00:03:16.433Z,93.94
2017-08-28T00:04:22.300Z,94.72
2017-08-28T00:05:28.388Z,94.13
2017-08-28T00:06:34.406Z,94.51
2017-08-28T00:07:40.529Z,95.10
2017-08-28T00:08:46.379Z,95.44
2017-08-28T00:09:52.424Z,94.64
2017-08-28T00:10:58.304Z,94.25
2017-08-28T00:12:04.342Z,93.88
2017-08-28T00:13:10.433Z,93.83
2017-08-28T00:14:16.759Z,93.43
2017-08-28T00:15:22.827Z,93.43
2017-08-28T00:16:28.890Z,93.45
2017-08-28T00:17:34.935Z,94.04
2017-08-28T00:18:40.987Z,93.92
2017-08-28T00:19:47.023Z,93.15
2017-08-28T00:20:53.071Z,92.42
2017-08-28T00:21:59.131Z,92.08
2017-08-28T00:23:05.163Z,92.63
2017-08-28T00:24:11.232Z,93.27
2017-08-28T00:25:17.270Z,93.71
2017-08-28T00:26:23.312Z,93.60
2017-08-28T00:27:29.378Z,93.92
2017-08-28T00:28:35.450Z,94.11
2017-08-28T00:29:41.628Z,94.18
2017-08-28T00:30:48.570Z,93.46
2017-08-28T00:31:54.670Z,93.83
2017-08-28T00:33:00.000Z,94.99
2017-08-28T00:34:06.084Z,94.75
2017-08-28T00:35:12.236Z,94.78
2017-08-28T00:36:18.307Z,95.15
2017-08-28T00:37:24.372Z,94.96
2017-08-28T00:38:30.510Z,94.82
2017-08-28T00:39:36.971Z,94.41
2017-08-28T00:40:42.679Z,94.54
2017-08-28T00:41:49.021Z,94.53
2017-08-28T00:42:55.112Z,94.34
2017-08-28T00:44:01.178Z,93.86
2017-08-28T00:45:07.254Z,94.05
2017-08-28T00:46:13.695Z,94.49
2017-08-28T00:47:19.603Z,94.17
2017-08-28T00:48:24.934Z,93.91
2017-08-28T00:49:31.931Z,94.09
2017-08-28T00:50:38.019Z,93.49
2017-08-28T00:51:44.069Z,93.88
2017-08-28T00:52:50.526Z,93.64
2017-08-28T00:53:56.645Z,94.31
2017-08-28T00:55:03.714Z,93.72
2017-08-28T00:56:09.899Z,94.09
2017-08-28T00:57:15.935Z,94.15
2017-08-28T00:58:21.996Z,95.12
2017-08-28T00:59:28.942Z,95.62
2017-08-28T01:00:34.274Z,95.81
2017-08-28T01:01:40.166Z,96.24
2017-08-28T01:02:46.231Z,96.04
2017-08-28T01:03:52.288Z,95.97
2017-08-28T01:04:58.385Z,95.51
2017-08-28T01:06:04.436Z,95.66
2017-08-28T01:07:10.160Z,95.55
2017-08-28T01:08:16.004Z,94.97
2017-08-28T01:09:22.962Z,94.99
2017-08-28T01:10:29.080Z,94.83
2017-08-28T01:11:35.125Z,95.40
2017-08-28T01:12:41.243Z,95.23
2017-08-28T01:13:47.324Z,95.20
2017-08-28T01:14:53.208Z,95.41
2017-08-28T01:15:59.377Z,94.68
2017-08-28T01:17:05.437Z,94.38
2017-08-28T01:18:13.265Z,94.37
2017-08-28T01:19:19.711Z,94.88
2017-08-28T01:20:25.038Z,94.92
2017-08-28T01:21:30.240Z,96.27
2017-08-28T01:22:36.360Z,96.22
2017-08-28T01:23:42.821Z,96.06
2017-08-28T01:24:49.060Z,95.78
2017-08-28T01:25:55.118Z,95.63
2017-08-28T01:27:01.385Z,95.69
2017-08-28T01:28:07.454Z,95.41
2017-08-28T01:29:13.584Z,95.36
2017-08-28T01:30:19.643Z,96.49
2017-08-28T01:31:26.576Z,96.97
2017-08-28T01:32:32.710Z,97.05
2017-08-28T01:33:38.785Z,97.31
2017-08-28T01:34:44.892Z,97.49
2017-08-28T01:35:52.588Z,97.35
2017-08-28T01:36:58.644Z,96.84
2017-08-28T01:38:04.733Z,96.55
2017-08-28T01:39:10.858Z,96.30
2017-08-28T01:40:17.922Z,96.58
2017-08-28T01:41:23.971Z,96.38
2017-08-28T01:42:30.049Z,96.44
2017-08-28T01:43:36.134Z,96.41
2017-08-28T01:44:42.178Z,95.93
2017-08-28T01:45:48.321Z,95.71
2017-08-28T01:46:54.349Z,95.64
2017-08-28T01:48:00.448Z,95.44
2017-08-28T01:49:06.474Z,95.81
2017-08-28T01:50:12.650Z,96.69
2017-08-28T01:51:18.823Z,97.01
2017-08-28T01:52:24.892Z,97.21
2017-08-28T01:53:30.979Z,97.28
2017-08-28T01:54:37.637Z,97.01
2017-08-28T01:55:43.674Z,97.41
2017-08-28T01:56:49.751Z,97.01
2017-08-28T01:57:56.719Z,96.12
2017-08-28T01:59:04.909Z,96.02
2017-08-28T02:00:11.013Z,95.62
2017-08-28T02:01:16.843Z,95.71
2017-08-28T02:02:23.567Z,96.05
2017-08-28T02:03:29.635Z,96.32
2017-08-28T02:04:36.862Z,96.01
2017-08-28T02:05:42.897Z,95.71
2017-08-28T02:06:48.931Z,95.85
2017-08-28T02:07:55.188Z,96.20
2017-08-28T02:09:02.893Z,96.27
2017-08-28T02:10:10.785Z,96.50
2017-08-28T02:11:17.251Z,96.24
2017-08-28T02:12:26.070Z,95.72
2017-08-28T02:13:32.126Z,95.60
2017-08-28T02:14:38.217Z,95.41
2017-08-28T02:15:43.750Z,95.87
2017-08-28T02:16:50.067Z,95.95
2017-08-28T02:17:56.294Z,95.55
2017-08-28T02:19:02.368Z,95.22
2017-08-28T02:20:09.191Z,96.06
2017-08-28T02:21:15.258Z,95.55
2017-08-28T02:22:22.152Z,95.32
2017-08-28T02:23:28.304Z,95.71
2017-08-28T02:24:34.682Z,96.54
2017-08-28T02:25:40.766Z,97.17
2017-08-28T02:26:46.871Z,97.24
2017-08-28T02:27:52.938Z,97.68
2017-08-28T02:28:59.031Z,98.05
2017-08-28T02:30:06.009Z,98.34
2017-08-28T02:31:12.051Z,97.88
2017-08-28T02:32:19.303Z,97.71
2017-08-28T02:33:25.451Z,97.51
2017-08-28T02:34:32.729Z,97.04
2017-08-28T02:35:39.451Z,98.13
2017-08-28T02:36:46.067Z,98.00
2017-08-28T02:37:52.252Z,97.89
2017-08-28T02:38:58.639Z,97.33
2017-08-28T02:40:04.743Z,96.84
2017-08-28T02:41:10.796Z,96.62
2017-08-28T02:42:16.852Z,97.12
2017-08-28T02:43:23.054Z,96.53
2017-08-28T02:44:29.147Z,95.97
2017-08-28T02:45:35.210Z,95.70
2017-08-28T02:46:41.276Z,95.32
2017-08-28T02:47:47.328Z,95.94
2017-08-28T02:48:53.363Z,97.19
2017-08-28T02:49:59.446Z,96.67
2017-08-28T02:51:05.484Z,97.23
2017-08-28T02:52:11.592Z,97.65
2017-08-28T02:53:18.155Z,97.68
2017-08-28T02:54:25.006Z,97.67
2017-08-28T02:55:31.849Z,97.54
2017-08-28T02:56:37.909Z,98.16
2017-08-28T02:57:43.987Z,98.12
2017-08-28T02:58:50.040Z,97.81
2017-08-28T02:59:56.817Z,97.22
2017-08-28T03:01:02.903Z,96.90
2017-08-28T03:02:08.953Z,96.90
2017-08-28T03:03:15.059Z,96.75
2017-08-28T03:04:21.123Z,97.51
2017-08-28T03:05:27.212Z,97.51
2017-08-28T03:06:33.285Z,97.81
2017-08-28T03:07:40.058Z,97.83
2017-08-28T03:08:46.771Z,97.52
2017-08-28T03:09:52.840Z,98.20
2017-08-28T03:10:58.544Z,98.38
2017-08-28T03:12:04.718Z,98.91
2017-08-28T03:13:10.765Z,98.90
2017-08-28T03:14:16.811Z,99.37
2017-08-28T03:15:22.881Z,98.62
2017-08-28T03:16:28.964Z,98.63
2017-08-28T03:17:35.116Z,98.59
2017-08-28T03:18:41.162Z,98.58
2017-08-28T03:19:47.198Z,98.47
2017-08-28T03:20:53.057Z,98.46
2017-08-28T03:21:59.143Z,98.86
2017-08-28T03:23:05.517Z,98.68
2017-08-28T03:24:11.580Z,97.73
2017-08-28T03:25:17.623Z,97.75
2017-08-28T03:26:23.711Z,98.22
2017-08-28T03:27:30.444Z,97.82
2017-08-28T03:28:37.403Z,97.81
2017-08-28T03:29:44.239Z,97.75
2017-08-28T03:30:50.317Z,97.28
2017-08-28T03:31:56.398Z,97.44
2017-08-28T03:33:02.511Z,98.77
2017-08-28T03:34:08.548Z,98.68
2017-08-28T03:35:14.421Z,99.61
2017-08-28T03:36:20.092Z,99.63
2017-08-28T03:37:25.936Z,99.87
2017-08-28T03:38:31.911Z,99.37
2017-08-28T03:39:37.799Z,98.92
2017-08-28T03:40:43.663Z,98.95
2017-08-28T03:41:49.686Z,98.63
2017-08-28T03:42:55.532Z,98.12
2017-08-28T03:44:01.416Z,98.23
2017-08-28T03:45:07.279Z,99.36
2017-08-28T03:46:13.163Z,99.54
2017-08-28T03:47:19.002Z,99.51
2017-08-28T03:48:24.875Z,99.42
2017-08-28T03:49:30.767Z,100.00
2017-08-28T03:50:36.715Z,100.00
2017-08-28T03:51:42.586Z,100.00
2017-08-28T03:52:48.452Z,99.97
2017-08-28T03:53:54.398Z,99.36
2017-08-28T03:55:00.283Z,98.85
2017-08-28T03:56:06.165Z,98.59
2017-08-28T03:57:12.010Z,97.87
2017-08-28T03:58:18.783Z,97.95
2017-08-28T03:59:25.570Z,98.54
2017-08-28T04:00:31.508Z,98.80
2017-08-28T04:01:38.400Z,98.79
2017-08-28T04:02:45.186Z,98.80
2017-08-28T04:03:51.129Z,98.67
2017-08-28T04:04:58.388Z,98.05
2017-08-28T04:06:04.878Z,97.66
2017-08-28T04:07:11.396Z,97.38
2017-08-28T04:08:17.255Z,97.25
2017-08-28T04:09:23.320Z,97.52
2017-08-28T04:10:29.520Z,97.44
2017-08-28T04:11:35.575Z,98.27
2017-08-28T04:12:41.627Z,98.83
2017-08-28T04:13:47.685Z,99.29
2017-08-28T04:14:53.746Z,99.37
2017-08-28T04:15:59.811Z,99.86
2017-08-28T04:17:05.930Z,99.93
2017-08-28T04:18:13.071Z,100.00
2017-08-28T04:19:18.915Z,99.77
2017-08-28T04:20:25.891Z,99.37
2017-08-28T04:21:31.979Z,99.41
2017-08-28T04:22:39.355Z,98.73
2017-08-28T04:23:45.926Z,97.99
2017-08-28T04:24:52.570Z,98.57
2017-08-28T04:25:59.514Z,98.39
2017-08-28T04:27:06.327Z,98.64
2017-08-28T04:28:29.002Z,99.01
2017-08-28T04:29:35.035Z,98.97
2017-08-28T04:30:41.031Z,99.45
2017-08-28T04:31:46.876Z,99.61
2017-08-28T04:32:53.728Z,99.43
2017-08-28T04:33:59.810Z,99.85
2017-08-28T04:35:05.862Z,100.00
2017-08-28T04:36:12.840Z,99.73
2017-08-28T04:37:18.900Z,99.17
2017-08-28T04:38:25.932Z,99.48
2017-08-28T04:39:31.961Z,99.98
2017-08-28T04:40:38.120Z,99.87
2017-08-28T04:41:47.084Z,99.95
2017-08-28T04:42:55.111Z,100.00
2017-08-28T04:44:04.541Z,99.87
2017-08-28T04:45:11.311Z,100.00
2017-08-28T04:46:19.294Z,100.00
2017-08-28T04:47:25.334Z,100.00
2017-08-28T04:48:31.414Z,99.76
2017-08-28T04:49:37.522Z,99.52
2017-08-28T04:50:43.573Z,99.00
2017-08-28T04:51:50.577Z,99.00
2017-08-28T04:52:57.447Z,98.54
2017-08-28T04:54:03.479Z,98.41
2017-08-28T04:55:09.580Z,98.45
2017-08-28T04:56:15.624Z,98.23
2017-08-28T04:57:21.658Z,98.35
2017-08-28T04:58:28.172Z,98.16
2017-08-28T04:59:34.241Z,98.07
2017-08-28T05:00:40.335Z,98.07
2017-08-28T05:01:46.408Z,98.00
2017-08-28T05:02:52.517Z,97.60
2017-08-28T05:03:59.126Z,97.27
2017-08-28T05:05:05.185Z,97.71
2017-08-28T05:06:11.284Z,98.29
2017-08-28T05:07:17.355Z,98.94
2017-08-28T05:08:23.600Z,99.07
2017-08-28T05:09:29.646Z,98.82
2017-08-28T05:10:35.738Z,98.61
2017-08-28T05:11:42.129Z,98.43
2017-08-28T05:12:48.186Z,99.25
2017-08-28T05:13:54.302Z,99.71
2017-08-28T05:15:00.367Z,98.90
2017-08-28T05:16:06.495Z,98.87
2017-08-28T05:17:12.602Z,98.99
2017-08-28T05:18:18.670Z,98.78
2017-08-28T05:19:24.539Z,98.94
2017-08-28T05:20:30.587Z,98.97
2017-08-28T05:21:36.656Z,99.64
2017-08-28T05:22:42.735Z,99.52
2017-08-28T05:23:48.791Z,99.07
2017-08-28T05:24:54.853Z,99.27
2017-08-28T05:26:00.901Z,98.91
2017-08-28T05:27:06.934Z,98.93
2017-08-28T05:28:13.786Z,98.29
2017-08-28T05:29:19.789Z,98.16
2017-08-28T05:30:25.845Z,97.68
2017-08-28T05:31:31.900Z,96.94
2017-08-28T05:32:37.954Z,96.89
2017-08-28T05:33:44.056Z,96.71
2017-08-28T05:34:50.211Z,96.48
2017-08-28T05:35:57.587Z,97.45
2017-08-28T05:37:03.994Z,97.05
2017-08-28T05:38:10.462Z,97.68
2017-08-28T05:39:16.778Z,97.57
2017-08-28T05:40:24.116Z,97.42
2017-08-28T05:41:30.293Z,97.68
2017-08-28T05:42:36.455Z,97.15
2017-08-28T05:43:42.698Z,97.45
2017-08-28T05:44:48.762Z,96.75
2017-08-28T05:45:54.829Z,96.55
2017-08-28T05:47:00.884Z,96.54
2017-08-28T05:48:07.629Z,96.66
2017-08-28T05:49:13.698Z,96.30
2017-08-28T05:50:19.767Z,95.70
2017-08-28T05:51:25.795Z,96.11
2017-08-28T05:52:31.672Z,96.42
2017-08-28T05:53:37.794Z,96.19
2017-08-28T05:54:43.899Z,95.90
2017-08-28T05:55:49.994Z,94.98
2017-08-28T05:56:56.095Z,94.74
2017-08-28T05:58:02.169Z,93.98
2017-08-28T05:59:08.227Z,94.02
2017-08-28T06:00:13.979Z,93.61
2017-08-28T06:01:28.117Z,93.10
2017-08-28T06:02:37.584Z,93.61
2017-08-28T06:03:44.610Z,93.23
2017-08-28T06:04:54.641Z,92.85
2017-08-28T06:06:03.184Z,92.37
2017-08-28T06:07:11.025Z,91.98
2017-08-28T06:08:17.248Z,91.94
2017-08-28T06:09:23.428Z,91.23
2017-08-28T06:10:29.505Z,91.63
2017-08-28T06:11:35.876Z,91.66
2017-08-28T06:12:42.983Z,91.80
2017-08-28T06:13:49.053Z,91.13
2017-08-28T06:14:55.096Z,90.91
2017-08-28T06:16:01.123Z,90.71
2017-08-28T06:17:07.187Z,90.09
2017-08-28T06:18:13.216Z,88.45
2017-08-28T06:19:19.381Z,88.92
2017-08-28T06:20:25.419Z,86.10
2017-08-28T06:21:31.452Z,86.00
2017-08-28T06:22:37.517Z,86.27
2017-08-28T06:23:43.689Z,85.23
2017-08-28T06:24:49.823Z,85.04
2017-08-28T06:25:55.950Z,85.27
2017-08-28T06:27:03.841Z,84.79
2017-08-28T06:28:10.011Z,84.74
2017-08-28T06:29:16.086Z,85.13
2017-08-28T06:30:23.041Z,84.95
2017-08-28T06:31:31.425Z,83.23
2017-08-28T06:32:38.144Z,81.68
2017-08-28T06:33:44.268Z,82.52
2017-08-28T06:34:50.335Z,82.64
2017-08-28T06:35:56.404Z,82.34
2017-08-28T06:37:02.465Z,81.78
2017-08-28T06:38:08.496Z,80.55
2017-08-28T06:39:15.708Z,79.65
2017-08-28T06:40:22.784Z,79.61
2017-08-28T06:41:29.495Z,80.01
2017-08-28T06:42:35.796Z,79.63
2017-08-28T06:43:42.382Z,80.22
2017-08-28T06:44:49.697Z,79.71
2017-08-28T06:45:55.761Z,79.50
2017-08-28T06:47:02.171Z,79.41
2017-08-28T06:48:09.046Z,79.50
2017-08-28T06:49:16.019Z,80.29
2017-08-28T06:50:22.831Z,79.66
2017-08-28T06:51:29.083Z,79.90
2017-08-28T06:52:35.110Z,79.41
2017-08-28T06:53:41.271Z,78.41
2017-08-28T06:54:47.366Z,78.75
2017-08-28T06:55:53.427Z,77.23
2017-08-28T06:56:59.513Z,77.51
2017-08-28T06:58:05.560Z,77.85
2017-08-28T06:59:11.590Z,77.27
2017-08-28T07:00:17.679Z,77.36
2017-08-28T07:01:23.725Z,77.32
2017-08-28T07:02:29.779Z,77.30
2017-08-28T07:03:35.816Z,76.46
2017-08-28T07:04:41.867Z,76.23
2017-08-28T07:05:48.793Z,76.74
2017-08-28T07:06:54.835Z,76.60
2017-08-28T07:08:00.865Z,76.07
2017-08-28T07:09:06.920Z,77.12
2017-08-28T07:10:13.067Z,77.64
2017-08-28T07:11:19.143Z,76.81
2017-08-28T07:12:26.295Z,76.54
2017-08-28T07:13:32.372Z,76.11
2017-08-28T07:14:38.421Z,76.28
2017-08-28T07:15:46.331Z,75.15
2017-08-28T07:16:52.519Z,75.38
2017-08-28T07:17:58.592Z,74.06
2017-08-28T07:19:04.620Z,74.24
2017-08-28T07:20:10.707Z,74.94
2017-08-28T07:21:18.507Z,73.61
2017-08-28T07:22:24.372Z,74.64
2017-08-28T07:23:31.043Z,73.87
2017-08-28T07:24:36.973Z,74.34
2017-08-28T07:25:43.755Z,74.47
2017-08-28T07:26:49.882Z,74.50
2017-08-28T07:27:55.935Z,73.23
2017-08-28T07:29:01.996Z,73.97
2017-08-28T07:30:08.062Z,74.12
2017-08-28T07:31:15.056Z,74.28
2017-08-28T07:32:21.479Z,74.24
2017-08-28T07:33:27.406Z,75.54
2017-08-28T07:34:34.248Z,76.56
2017-08-28T07:35:40.286Z,75.09
2017-08-28T07:36:48.261Z,74.74
2017-08-28T07:37:54.364Z,74.45
2017-08-28T07:39:00.439Z,73.52
2017-08-28T07:40:06.293Z,73.04
2017-08-28T07:41:12.370Z,72.74
2017-08-28T07:42:18.671Z,73.38
2017-08-28T07:43:24.758Z,72.54
2017-08-28T07:44:30.848Z,72.29
2017-08-28T07:45:36.924Z,72.21
2017-08-28T07:46:42.961Z,72.88
2017-08-28T07:47:49.015Z,72.84
2017-08-28T07:48:55.518Z,71.58
2017-08-28T07:50:02.451Z,71.11
2017-08-28T07:51:09.243Z,70.37
2017-08-28T07:52:15.295Z,72.19
2017-08-28T07:53:23.877Z,72.04
2017-08-28T07:54:31.157Z,71.85
2017-08-28T07:55:37.500Z,70.90
2017-08-28T07:56:43.602Z,71.48
2017-08-28T07:57:49.656Z,72.19
2017-08-28T07:58:55.775Z,70.30
2017-08-28T08:00:01.834Z,71.39
2017-08-28T08:01:07.712Z,70.95
2017-08-28T08:02:19.076Z,70.98
2017-08-28T08:03:32.995Z,71.84
2017-08-28T08:04:40.137Z,72.61
2017-08-28T08:05:46.250Z,72.23
2017-08-28T08:06:52.402Z,71.87
2017-08-28T08:07:59.310Z,70.92
2017-08-28T08:09:06.203Z,69.41
2017-08-28T08:10:12.301Z,70.13
2017-08-28T08:11:18.428Z,69.68
2017-08-28T08:12:25.600Z,69.98
2017-08-28T08:13:31.703Z,70.31
2017-08-28T08:14:37.781Z,69.61
2017-08-28T08:15:44.064Z,69.38
2017-08-28T08:16:50.201Z,67.46
2017-08-28T08:17:56.299Z,67.93
2017-08-28T08:19:02.373Z,69.02
2017-08-28T08:20:08.520Z,69.60
2017-08-28T08:21:14.582Z,69.27
2017-08-28T08:22:21.047Z,68.72
2017-08-28T08:23:27.236Z,67.98
2017-08-28T08:24:33.605Z,68.23
2017-08-28T08:25:40.012Z,67.13
2017-08-28T08:26:45.882Z,67.84
2017-08-28T08:27:51.662Z,68.34
2017-08-28T08:28:58.538Z,67.45
2017-08-28T08:30:03.875Z,67.30
2017-08-28T08:31:09.967Z,66.48
2017-08-28T08:32:16.016Z,68.02
2017-08-28T08:33:28.323Z,68.35
2017-08-28T08:34:34.603Z,68.74
2017-08-28T08:35:41.472Z,68.66
2017-08-28T08:36:47.618Z,67.88
2017-08-28T08:37:53.698Z,67.39
2017-08-28T08:39:00.415Z,66.31
2017-08-28T08:40:06.341Z,66.72
2017-08-28T08:41:13.127Z,65.71
2017-08-28T08:42:19.054Z,64.87
2017-08-28T08:43:24.962Z,65.77
2017-08-28T08:44:32.151Z,67.56
2017-08-28T08:45:39.010Z,63.94
2017-08-28T08:46:45.105Z,64.09
2017-08-28T08:47:51.288Z,64.00
2017-08-28T08:48:57.381Z,65.53
2017-08-28T08:50:03.528Z,65.00
2017-08-28T08:51:09.583Z,63.56
2017-08-28T08:52:15.463Z,62.99
2017-08-28T08:53:21.360Z,64.28
2017-08-28T08:54:27.991Z,64.23
2017-08-28T08:55:34.057Z,64.23
2017-08-28T08:56:40.138Z,64.39
2017-08-28T08:57:46.828Z,63.77
2017-08-28T08:58:53.615Z,61.99
2017-08-28T08:59:59.697Z,61.63
2017-08-28T09:01:05.756Z,61.98
2017-08-28T09:02:12.786Z,60.08
2017-08-28T09:03:25.203Z,61.48
2017-08-28T09:04:31.136Z,59.72
2017-08-28T09:05:37.219Z,60.57
2017-08-28T09:06:43.323Z,61.00
2017-08-28T09:07:49.379Z,60.96
2017-08-28T09:08:55.466Z,60.72
2017-08-28T09:10:01.541Z,62.46
2017-08-28T09:11:07.596Z,60.47
2017-08-28T09:12:13.722Z,58.98
2017-08-28T09:13:20.650Z,59.80
2017-08-28T09:14:26.818Z,60.28
2017-08-28T09:15:33.437Z,60.66
2017-08-28T09:16:39.337Z,61.30
2017-08-28T09:17:46.353Z,60.91
2017-08-28T09:18:52.551Z,62.18
2017-08-28T09:19:58.684Z,62.79
2017-08-28T09:21:04.392Z,61.03
2017-08-28T09:22:10.495Z,60.51
2017-08-28T09:23:16.395Z,59.82
2017-08-28T09:24:22.486Z,59.58
2017-08-28T09:25:30.737Z,58.42
2017-08-28T09:26:38.204Z,60.94
2017-08-28T09:27:44.831Z,60.04
2017-08-28T09:28:51.499Z,63.01
2017-08-28T09:29:58.496Z,63.07
2017-08-28T09:31:05.245Z,61.33
2017-08-28T09:32:11.343Z,62.33
2017-08-28T09:33:17.460Z,62.59
2017-08-28T09:34:24.492Z,63.34
2017-08-28T09:35:30.702Z,62.60
2017-08-28T09:36:38.540Z,62.13
2017-08-28T09:37:44.616Z,62.70
2017-08-28T09:38:51.352Z,63.23
2017-08-28T09:39:58.158Z,61.63
2017-08-28T09:41:08.430Z,59.78
2017-08-28T09:42:17.149Z,60.16
2017-08-28T09:43:25.660Z,61.91
2017-08-28T09:44:33.401Z,62.30
2017-08-28T09:45:41.284Z,61.85
2017-08-28T09:46:48.984Z,62.11
2017-08-28T09:48:00.757Z,62.43
2017-08-28T09:49:12.332Z,63.20
2017-08-28T09:50:19.137Z,62.07
2017-08-28T09:51:28.327Z,62.18
2017-08-28T09:52:36.539Z,62.50
2017-08-28T09:53:42.829Z,62.49
2017-08-28T09:54:48.923Z,62.01
2017-08-28T09:55:54.983Z,62.18
2017-08-28T09:57:01.152Z,60.48
2017-08-28T09:58:07.302Z,63.16
2017-08-28T09:59:13.402Z,60.32
2017-08-28T10:00:19.472Z,59.89
2017-08-28T10:01:25.555Z,59.33
2017-08-28T10:02:32.754Z,55.52
2017-08-28T10:03:38.836Z,54.72
2017-08-28T10:04:44.910Z,56.34
2017-08-28T10:05:50.966Z,55.68
2017-08-28T10:06:57.022Z,55.71
2017-08-28T10:08:03.127Z,55.53
2017-08-28T10:09:09.222Z,55.30
2017-08-28T10:10:15.304Z,54.47
2017-08-28T10:11:21.160Z,56.69
2017-08-28T10:12:28.261Z,53.52
2017-08-28T10:13:35.738Z,55.32
2017-08-28T10:14:41.846Z,55.44
2017-08-28T10:15:47.940Z,57.40
2017-08-28T10:16:55.718Z,55.11
2017-08-28T10:18:01.831Z,55.66
2017-08-28T10:19:08.809Z,53.83
2017-08-28T10:20:14.870Z,52.23
2017-08-28T10:21:20.939Z,50.60
2017-08-28T10:22:26.981Z,48.94
2017-08-28T10:23:33.099Z,49.55
2017-08-28T10:24:39.291Z,50.84
2017-08-28T10:25:45.346Z,52.96
2017-08-28T10:26:50.686Z,55.85
2017-08-28T10:27:57.536Z,53.09
2017-08-28T10:29:03.681Z,54.73
2017-08-28T10:30:09.736Z,52.50
2017-08-28T10:31:15.794Z,52.22
2017-08-28T10:32:21.847Z,52.31
2017-08-28T10:33:27.912Z,52.61
2017-08-28T10:34:34.028Z,49.50
2017-08-28T10:35:40.075Z,48.76
2017-08-28T10:36:46.122Z,49.79
2017-08-28T10:37:52.250Z,49.57
2017-08-28T10:38:58.290Z,48.64
2017-08-28T10:40:04.376Z,49.17
2017-08-28T10:41:10.437Z,52.48
2017-08-28T10:42:16.529Z,50.27
2017-08-28T10:43:22.602Z,48.93
2017-08-28T10:44:28.652Z,51.79
2017-08-28T10:45:34.755Z,49.71
2017-08-28T10:46:40.809Z,48.06
2017-08-28T10:47:46.848Z,49.54
2017-08-28T10:48:52.991Z,48.28
2017-08-28T10:49:59.031Z,49.21
2017-08-28T10:51:05.129Z,50.70
2017-08-28T10:52:11.190Z,49.31
2017-08-28T10:53:18.201Z,50.95
2017-08-28T10:54:24.288Z,51.71
2017-08-28T10:55:30.369Z,50.94
2017-08-28T10:56:36.516Z,52.11
2017-08-28T10:57:42.627Z,54.65
2017-08-28T10:58:48.696Z,54.18
2017-08-28T10:59:56.467Z,54.88
2017-08-28T11:01:04.448Z,53.29
2017-08-28T11:02:13.443Z,52.95
2017-08-28T11:03:20.729Z,53.52
2017-08-28T11:04:29.081Z,54.33
2017-08-28T11:05:39.060Z,54.14
2017-08-28T11:06:48.518Z,55.14
2017-08-28T11:07:57.539Z,53.70
2017-08-28T11:09:04.577Z,55.29
2017-08-28T11:10:12.616Z,55.79
2017-08-28T11:11:19.183Z,54.58
2017-08-28T11:12:25.234Z,53.72
2017-08-28T11:13:31.323Z,55.33
2017-08-28T11:14:37.381Z,54.80
2017-08-28T11:15:43.462Z,54.46
2017-08-28T11:16:49.516Z,53.45
2017-08-28T11:17:55.610Z,52.58
2017-08-28T11:19:01.767Z,53.05
2017-08-28T11:20:07.827Z,53.35
2017-08-28T11:21:14.545Z,53.33
2017-08-28T11:22:20.803Z,54.76
2017-08-28T11:23:26.985Z,54.35
2017-08-28T11:24:33.055Z,55.86
2017-08-28T11:25:39.102Z,54.05
2017-08-28T11:26:45.169Z,55.62
2017-08-28T11:27:51.226Z,54.80
2017-08-28T11:28:57.137Z,53.21
2017-08-28T11:30:03.227Z,54.13
2017-08-28T11:31:09.408Z,54.32
2017-08-28T11:32:15.490Z,55.18
2017-08-28T11:33:21.538Z,54.99
2017-08-28T11:34:27.666Z,56.40
2017-08-28T11:35:33.771Z,54.79
2017-08-28T11:36:39.854Z,55.97
2017-08-28T11:37:45.959Z,56.91
2017-08-28T11:38:52.811Z,56.96
2017-08-28T11:39:59.203Z,55.35
2017-08-28T11:41:05.293Z,54.94
2017-08-28T11:42:11.361Z,54.10
2017-08-28T11:43:17.418Z,55.35
2017-08-28T11:44:23.457Z,52.13
2017-08-28T11:45:29.532Z,51.40
2017-08-28T11:46:35.566Z,52.42
2017-08-28T11:47:41.612Z,48.58
2017-08-28T11:48:47.714Z,47.64
2017-08-28T11:49:53.787Z,48.75
2017-08-28T11:50:59.948Z,49.18
2017-08-28T11:52:05.982Z,49.27
2017-08-28T11:53:12.015Z,50.73
2017-08-28T11:54:18.077Z,49.63
2017-08-28T11:55:24.179Z,48.49
2017-08-28T11:56:30.301Z,46.32
2017-08-28T11:57:36.403Z,46.93
2017-08-28T11:58:42.958Z,48.90
2017-08-28T11:59:49.027Z,47.32
2017-08-28T12:00:56.082Z,48.58
2017-08-28T12:02:02.182Z,45.82
2017-08-28T12:03:10.677Z,47.43
2017-08-28T12:04:18.301Z,47.53
2017-08-28T12:05:25.552Z,47.25
2017-08-28T12:06:33.552Z,46.45
2017-08-28T12:07:40.051Z,46.79
2017-08-28T12:08:47.047Z,47.38
2017-08-28T12:09:54.268Z,48.60
2017-08-28T12:11:03.052Z,47.51
2017-08-28T12:12:10.027Z,48.00
2017-08-28T12:13:18.853Z,45.54
2017-08-28T12:14:26.077Z,46.12
2017-08-28T12:15:33.158Z,47.86
2017-08-28T12:16:41.276Z,49.87
2017-08-28T12:17:47.816Z,48.84
2017-08-28T12:18:56.802Z,50.20
2017-08-28T12:20:04.096Z,48.89
2017-08-28T12:21:12.832Z,49.59
2017-08-28T12:22:20.497Z,50.97
2017-08-28T12:23:29.312Z,51.56
2017-08-28T12:24:35.696Z,49.95
2017-08-28T12:25:42.560Z,50.29
2017-08-28T12:26:48.633Z,50.06
2017-08-28T12:27:55.616Z,48.95
2017-08-28T12:29:02.964Z,47.96
2017-08-28T12:30:11.803Z,45.81
2017-08-28T12:31:19.839Z,45.24
2017-08-28T12:32:27.569Z,47.81
2017-08-28T12:33:36.407Z,47.29
2017-08-28T12:34:44.754Z,45.70
2017-08-28T12:35:51.704Z,45.97
2017-08-28T12:36:57.818Z,46.57
2017-08-28T12:38:03.838Z,45.72
2017-08-28T12:39:09.914Z,45.33
2017-08-28T12:40:15.981Z,47.00
2017-08-28T12:41:22.951Z,46.24
2017-08-28T12:42:29.029Z,45.56
2017-08-28T12:43:35.105Z,46.41
2017-08-28T12:44:41.164Z,46.31
2017-08-28T12:45:47.252Z,45.98
2017-08-28T12:46:53.375Z,45.78
2017-08-28T12:47:59.421Z,46.56
2017-08-28T12:49:07.434Z,45.70
2017-08-28T12:50:17.099Z,48.10
2017-08-28T12:51:25.102Z,44.19
2017-08-28T12:52:32.167Z,44.21
2017-08-28T12:53:38.261Z,43.60
2017-08-28T12:54:48.755Z,44.15
2017-08-28T12:55:57.488Z,45.19
2017-08-28T12:57:08.276Z,43.69
2017-08-28T12:58:16.574Z,44.49
2017-08-28T12:59:24.452Z,45.88
2017-08-28T13:00:32.319Z,47.03
2017-08-28T13:01:41.540Z,47.95
2017-08-28T13:02:49.938Z,48.99
2017-08-28T13:03:58.245Z,48.20
2017-08-28T13:05:05.174Z,46.97
2017-08-28T13:06:14.369Z,46.63
2017-08-28T13:07:23.986Z,50.17
2017-08-28T13:08:31.885Z,48.17
2017-08-28T13:09:40.337Z,48.43
2017-08-28T13:10:48.377Z,46.62
2017-08-28T13:11:57.574Z,47.10
2017-08-28T13:13:09.143Z,46.22
2017-08-28T13:14:17.260Z,47.18
2017-08-28T13:15:24.861Z,46.99
2017-08-28T13:16:33.555Z,45.96
2017-08-28T13:17:42.412Z,47.78
2017-08-28T13:18:49.933Z,47.57
2017-08-28T13:19:57.175Z,49.27
2017-08-28T13:21:03.281Z,50.38
2017-08-28T13:22:10.065Z,49.65
2017-08-28T13:23:16.159Z,51.29
2017-08-28T13:24:22.263Z,49.56
2017-08-28T13:25:28.362Z,50.74
2017-08-28T13:26:34.411Z,52.34
2017-08-28T13:27:40.460Z,52.79
2017-08-28T13:28:46.493Z,52.21
2017-08-28T13:29:52.632Z,50.44
2017-08-28T13:30:58.542Z,45.58
2017-08-28T13:32:04.604Z,44.84
2017-08-28T13:33:10.668Z,44.81
2017-08-28T13:34:16.728Z,47.64
2017-08-28T13:35:22.834Z,47.57
2017-08-28T13:36:28.937Z,47.23
2017-08-28T13:37:35.004Z,47.29
2017-08-28T13:38:41.070Z,46.54
2017-08-28T13:39:47.106Z,46.54
2017-08-28T13:40:53.275Z,46.95
2017-08-28T13:42:00.104Z,45.68
2017-08-28T13:43:06.176Z,46.37
2017-08-28T13:44:12.232Z,47.95
2017-08-28T13:45:18.289Z,49.68
2017-08-28T13:46:24.397Z,50.57
2017-08-28T13:47:30.450Z,52.42
2017-08-28T13:48:36.497Z,46.62
2017-08-28T13:49:42.557Z,46.29
2017-08-28T13:50:48.623Z,46.66
2017-08-28T13:51:54.707Z,44.78
2017-08-28T13:53:00.777Z,46.06
2017-08-28T13:54:06.837Z,44.04
2017-08-28T13:55:12.892Z,45.75
2017-08-28T13:56:18.922Z,44.04
2017-08-28T13:57:24.874Z,43.99
2017-08-28T13:58:30.931Z,43.09
2017-08-28T13:59:36.986Z,41.73
2017-08-28T14:00:43.034Z,42.89
2017-08-28T14:01:49.166Z,42.66
2017-08-28T14:02:55.227Z,44.85
2017-08-28T14:04:01.289Z,43.57
2017-08-28T14:05:07.368Z,41.77
2017-08-28T14:06:13.418Z,42.90
2017-08-28T14:07:19.546Z,42.25
2017-08-28T14:08:25.657Z,42.49
2017-08-28T14:09:31.724Z,41.81
2017-08-28T14:10:37.765Z,42.27
2017-08-28T14:11:43.789Z,42.51
2017-08-28T14:12:49.671Z,40.66
2017-08-28T14:13:55.728Z,42.02
2017-08-28T14:15:01.767Z,39.74
2017-08-28T14:16:08.373Z,39.66
2017-08-28T14:17:14.548Z,40.61